Time;durP1;ratioP1;P1;durP2;ratioP2;P2;SDS_P1;SDS_P2;PMS_P1;PMS_P2;Temp;Humidity;BMP_temperature;BMP_pressure;BME280_temperature;BME280_humidity;BME280_pressure;Samples;Min_cycle;Max_cycle;Signal;HPM_P1;HPM_P2
2024/04/05 00:00:55;;;;;;;7.63;1.60;;;13.50;99.90;;;;;;5101685;28;20051;-76
2024/04/05 00:03:20;;;;;;;11.15;2.22;;;13.50;99.90;;;;;;5103202;28;20492;-76
2024/04/05 00:05:47;;;;;;;8.32;1.55;;;13.50;99.90;;;;;;5098488;28;20062;-75
2024/04/05 00:08:13;;;;;;;4.53;1.38;;;13.40;99.90;;;;;;5102144;28;20052;-76
2024/04/05 00:10:40;;;;;;;10.05;1.92;;;13.50;99.90;;;;;;5102018;28;20040;-75
2024/04/05 00:13:08;;;;;;;7.15;1.70;;;13.40;99.90;;;;;;5102983;28;20048;-76
2024/04/05 00:15:42;;;;;;;5.10;1.70;;;13.40;99.90;;;;;;5104774;28;20420;-75
2024/04/05 00:18:09;;;;;;;;;;;13.30;99.90;;;;;;5107590;28;20051;-76
2024/04/05 00:20:36;;;;;;;5.95;1.30;;;13.30;99.90;;;;;;5107295;28;20292;-76
2024/04/05 00:23:03;;;;;;;4.57;1.65;;;13.30;99.90;;;;;;5108485;28;20048;-76
2024/04/05 00:25:29;;;;;;;3.83;1.20;;;13.30;99.90;;;;;;5105733;28;20044;-75
2024/04/05 00:27:55;;;;;;;6.10;1.92;;;13.30;99.90;;;;;;5104647;28;20134;-76
2024/04/05 00:30:23;;;;;;;8.10;1.70;;;13.30;99.90;;;;;;5102014;28;20071;-75
2024/04/05 00:32:49;;;;;;;10.73;1.92;;;13.30;99.90;;;;;;5103769;28;20412;-74
2024/04/05 00:35:16;;;;;;;8.40;1.63;;;13.30;99.90;;;;;;5101223;28;20133;-78
2024/04/05 00:37:42;;;;;;;3.83;1.77;;;13.30;99.90;;;;;;5103584;28;20056;-75
2024/04/05 00:40:09;;;;;;;13.65;2.00;;;13.30;99.90;;;;;;5101677;28;20107;-76
2024/04/05 00:42:37;;;;;;;6.50;2.00;;;13.30;99.90;;;;;;5101882;28;20048;-75
2024/04/05 00:45:04;;;;;;;8.95;2.20;;;13.30;99.90;;;;;;5093664;28;20044;-76
2024/04/05 00:47:33;;;;;;;7.55;1.98;;;13.30;99.90;;;;;;5097269;28;20044;-75
2024/04/05 00:50:01;;;;;;;7.03;1.60;;;13.20;99.90;;;;;;5095330;28;20129;-76
2024/04/05 00:52:27;;;;;;;7.13;1.40;;;13.30;99.90;;;;;;5093844;28;20421;-75
2024/04/05 00:54:54;;;;;;;5.45;1.70;;;13.30;99.90;;;;;;5093897;28;20470;-76
2024/04/05 00:57:20;;;;;;;10.23;2.25;;;13.30;99.90;;;;;;5098376;28;20055;-76
2024/04/05 00:59:47;;;;;;;4.82;1.70;;;13.30;99.90;;;;;;5098887;28;20052;-76
2024/04/05 01:02:13;;;;;;;7.70;1.70;;;13.30;99.90;;;;;;5098606;28;20416;-75
2024/04/05 01:04:41;;;;;;;4.78;1.40;;;13.30;99.90;;;;;;5098912;28;20114;-75
2024/04/05 01:07:08;;;;;;;3.95;1.63;;;13.30;99.90;;;;;;5099044;28;20079;-77
2024/04/05 01:09:34;;;;;;;3.35;1.48;;;13.30;99.90;;;;;;5099145;28;20047;-75
2024/04/05 01:12:00;;;;;;;6.95;2.20;;;13.30;99.90;;;;;;5098761;28;20059;-75
2024/04/05 01:14:27;;;;;;;6.05;1.77;;;13.30;99.90;;;;;;5098907;28;20052;-76
2024/04/05 01:16:53;;;;;;;9.40;2.05;;;13.30;99.90;;;;;;5101794;28;20051;-76
2024/04/05 01:19:19;;;;;;;6.53;1.80;;;13.30;99.90;;;;;;5103399;28;20054;-75
2024/04/05 01:21:50;;;;;;;5.97;1.92;;;13.30;99.90;;;;;;5103468;28;20048;-75
2024/04/05 01:24:18;;;;;;;5.53;1.45;;;13.30;99.90;;;;;;5103457;28;20103;-75
2024/04/05 01:26:44;;;;;;;7.38;1.65;;;13.30;99.90;;;;;;5102965;28;20074;-75
2024/04/05 01:29:11;;;;;;;6.85;1.90;;;13.30;99.90;;;;;;5101625;28;20564;-75
2024/04/05 01:31:37;;;;;;;4.55;2.00;;;13.30;99.90;;;;;;5099525;28;20480;-76
2024/04/05 01:34:03;;;;;;;5.32;1.77;;;13.20;99.90;;;;;;5101029;28;20040;-75
2024/04/05 01:36:29;;;;;;;10.15;1.90;;;13.20;99.90;;;;;;5100602;28;20055;-76
2024/04/05 01:38:57;;;;;;;8.93;1.98;;;13.20;99.90;;;;;;5101410;28;20039;-76
2024/04/05 01:41:24;;;;;;;5.30;1.45;;;13.20;99.90;;;;;;5099122;28;20059;-75
2024/04/05 01:43:51;;;;;;;7.55;2.17;;;13.20;99.90;;;;;;5100896;28;20450;-76
2024/04/05 01:46:17;;;;;;;9.77;1.88;;;13.20;99.90;;;;;;5099997;28;20047;-75
2024/04/05 01:48:44;;;;;;;9.55;1.88;;;13.20;99.90;;;;;;5100540;28;20047;-76
2024/04/05 01:51:10;;;;;;;7.32;1.83;;;13.20;99.90;;;;;;5097836;28;20404;-76
2024/04/05 01:53:36;;;;;;;5.20;1.40;;;13.20;99.90;;;;;;5097663;28;20048;-76
2024/04/05 01:56:03;;;;;;;6.93;1.63;;;13.20;99.90;;;;;;5098710;28;20047;-75
2024/04/05 01:58:32;;;;;;;6.88;1.70;;;13.20;99.90;;;;;;5098362;28;20484;-76
2024/04/05 02:01:03;;;;;;;10.80;2.70;;;13.20;99.90;;;;;;5098446;28;20066;-75
2024/04/05 02:03:30;;;;;;;3.60;1.20;;;13.20;99.90;;;;;;5097471;28;20479;-76
2024/04/05 02:05:56;;;;;;;5.78;1.52;;;13.20;99.90;;;;;;5096765;28;20048;-75
2024/04/05 02:08:23;;;;;;;6.13;1.75;;;13.20;99.90;;;;;;5097334;28;20052;-76
2024/04/05 02:10:49;;;;;;;6.07;1.63;;;13.20;99.90;;;;;;5098691;28;20052;-75
2024/04/05 02:13:16;;;;;;;7.45;1.48;;;13.20;99.90;;;;;;5099152;28;20054;-75
2024/04/05 02:15:46;;;;;;;8.82;2.00;;;13.20;99.90;;;;;;5098218;28;20051;-76
2024/04/05 02:18:13;;;;;;;6.97;2.13;;;13.10;99.90;;;;;;5097174;28;20101;-75
2024/04/05 02:20:41;;;;;;;8.45;1.60;;;13.10;99.90;;;;;;5098799;28;20052;-75
2024/04/05 02:23:09;;;;;;;6.50;1.30;;;13.10;99.90;;;;;;5097618;28;20043;-75
2024/04/05 02:25:35;;;;;;;5.32;1.83;;;13.10;99.90;;;;;;5097239;28;20412;-74
2024/04/05 02:28:02;;;;;;;3.88;1.95;;;13.10;99.90;;;;;;5095878;28;20134;-75
2024/04/05 02:30:28;;;;;;;8.15;1.52;;;13.10;99.90;;;;;;5098708;28;20416;-76
2024/04/05 02:32:56;;;;;;;9.63;2.17;;;12.70;99.90;;;;;;5099246;28;20039;-75
2024/04/05 02:35:22;;;;;;;7.07;1.60;;;13.10;99.90;;;;;;5099010;28;20409;-76
2024/04/05 02:37:49;;;;;;;7.63;1.60;;;13.20;99.90;;;;;;5110638;28;20044;-76
2024/04/05 02:40:14;;;;;;;9.38;1.73;;;13.10;99.90;;;;;;5107303;28;20048;-76
2024/04/05 02:42:41;;;;;;;7.07;1.52;;;13.10;99.90;;;;;;5100233;28;20082;-76
2024/04/05 02:45:08;;;;;;;5.50;1.60;;;13.20;99.90;;;;;;5096630;28;20101;-75
2024/04/05 02:47:35;;;;;;;6.90;1.70;;;13.20;99.90;;;;;;5097448;28;20048;-75
2024/04/05 02:50:05;;;;;;;6.32;1.40;;;13.20;99.90;;;;;;5097135;28;20496;-75
2024/04/05 02:52:32;;;;;;;9.05;1.90;;;13.20;99.90;;;;;;5098020;28;20142;-75
2024/04/05 02:54:58;;;;;;;7.68;1.67;;;13.20;99.90;;;;;;5097700;28;20075;-75
2024/04/05 02:57:25;;;;;;;3.03;1.17;;;13.20;99.90;;;;;;5097741;28;20124;-75
2024/04/05 02:59:51;;;;;;;9.07;1.80;;;13.20;99.90;;;;;;5097107;28;20052;-76
2024/04/05 03:02:18;;;;;;;4.95;1.58;;;13.20;99.90;;;;;;5096350;28;20044;-75
2024/04/05 03:04:44;;;;;;;5.45;1.70;;;13.20;99.90;;;;;;5096180;28;20416;-75
2024/04/05 03:07:12;;;;;;;3.40;1.38;;;13.20;99.90;;;;;;5096631;28;20048;-78
2024/04/05 03:09:40;;;;;;;5.85;2.40;;;13.20;99.90;;;;;;5097004;28;20415;-76
2024/04/05 03:12:08;;;;;;;5.15;1.60;;;13.10;99.90;;;;;;5095518;28;20480;-76
2024/04/05 03:14:34;;;;;;;8.43;1.88;;;13.10;99.90;;;;;;5096580;28;20404;-77
2024/04/05 03:17:01;;;;;;;7.05;2.00;;;13.10;99.90;;;;;;5096093;28;20048;-77
2024/04/05 03:19:27;;;;;;;3.10;1.40;;;13.10;99.90;;;;;;5096272;28;20047;-75
2024/04/05 03:21:54;;;;;;;7.72;1.77;;;13.10;99.90;;;;;;5096074;28;20097;-77
2024/04/05 03:24:22;;;;;;;8.70;1.50;;;13.20;99.90;;;;;;5096024;28;20051;-76
2024/04/05 03:26:49;;;;;;;7.28;1.50;;;13.20;99.90;;;;;;5095321;28;20276;-76
2024/04/05 03:29:16;;;;;;;5.28;1.63;;;13.10;99.90;;;;;;5094392;28;20048;-75
2024/04/05 03:31:43;;;;;;;8.85;1.73;;;13.10;99.90;;;;;;5097617;28;20109;-76
2024/04/05 03:34:09;;;;;;;9.43;2.40;;;13.10;99.90;;;;;;5096687;28;20046;-75
2024/04/05 03:36:36;;;;;;;13.85;2.60;;;13.10;99.90;;;;;;5096995;28;20040;-75
2024/04/05 03:39:03;;;;;;;11.30;2.92;;;13.10;99.90;;;;;;5095781;28;20047;-75
2024/04/05 03:41:32;;;;;;;10.73;3.10;;;13.00;99.90;;;;;;5096543;28;20150;-75
2024/04/05 03:43:59;;;;;;;11.88;3.50;;;13.00;99.90;;;;;;5096506;28;20052;-76
2024/04/05 03:46:25;;;;;;;11.73;3.72;;;12.90;99.90;;;;;;5096513;28;20044;-75
2024/04/05 03:48:52;;;;;;;14.93;3.75;;;12.90;99.90;;;;;;5096077;28;20173;-76
2024/04/05 03:51:18;;;;;;;10.20;3.33;;;12.80;99.90;;;;;;5096380;28;20385;-76
2024/04/05 03:53:44;;;;;;;12.52;4.00;;;12.80;99.90;;;;;;5096227;28;20074;-75
2024/04/05 03:56:10;;;;;;;12.75;4.55;;;12.70;99.90;;;;;;5096050;28;20058;-75
2024/04/05 03:58:38;;;;;;;17.63;3.88;;;12.60;99.90;;;;;;5096381;28;20047;-76
2024/04/05 04:01:04;;;;;;;15.27;4.35;;;12.60;99.90;;;;;;5096447;28;20048;-75
2024/04/05 04:03:31;;;;;;;11.07;3.33;;;12.50;99.90;;;;;;5096925;28;20511;-75
2024/04/05 04:05:57;;;;;;;15.50;3.90;;;12.50;99.90;;;;;;5098602;28;20074;-76
2024/04/05 04:08:24;;;;;;;8.27;3.22;;;12.50;99.90;;;;;;5096228;28;20094;-76
2024/04/05 04:10:51;;;;;;;12.05;3.75;;;12.40;99.90;;;;;;5097675;28;20048;-75
2024/04/05 04:13:19;;;;;;;15.82;3.35;;;12.50;99.90;;;;;;5096610;28;20055;-76
2024/04/05 04:15:46;;;;;;;13.18;4.15;;;12.40;99.90;;;;;;5096364;28;20136;-76
2024/04/05 04:18:13;;;;;;;11.23;3.80;;;12.50;99.90;;;;;;5095983;28;20051;-76
2024/04/05 04:20:39;;;;;;;18.05;3.88;;;12.40;99.90;;;;;;5095949;28;20048;-75
2024/04/05 04:23:07;;;;;;;12.90;3.80;;;12.40;99.90;;;;;;5096350;28;20051;-75
2024/04/05 04:25:33;;;;;;;9.60;3.47;;;12.40;99.90;;;;;;5096262;28;20070;-76
2024/04/05 04:28:01;;;;;;;11.02;3.85;;;12.40;99.90;;;;;;5097647;28;20538;-76
2024/04/05 04:30:28;;;;;;;10.50;3.75;;;12.40;99.90;;;;;;5098131;28;20048;-76
2024/04/05 04:32:56;;;;;;;11.20;3.53;;;12.40;99.90;;;;;;5098751;28;20044;-77
2024/04/05 04:35:22;;;;;;;12.65;3.28;;;12.30;99.90;;;;;;5104783;28;20424;-76
2024/04/05 04:37:49;;;;;;;13.52;4.30;;;12.30;99.90;;;;;;5105241;28;20174;-75
2024/04/05 04:40:14;;;;;;;15.40;4.20;;;12.30;99.90;;;;;;5111929;28;20044;-76
2024/04/05 04:42:41;;;;;;;13.45;4.22;;;12.20;99.90;;;;;;5115219;28;20059;-75
2024/04/05 04:45:08;;;;;;;10.93;3.92;;;12.20;99.90;;;;;;5116863;28;20075;-75
2024/04/05 04:47:35;;;;;;;11.82;4.28;;;12.20;99.90;;;;;;5116997;28;20044;-76
2024/04/05 04:50:04;;;;;;;16.67;4.75;;;12.20;99.90;;;;;;5116940;28;20042;-76
2024/04/05 04:52:31;;;;;;;9.25;4.10;;;12.10;99.90;;;;;;5119360;28;20067;-76
2024/04/05 04:54:57;;;;;;;14.90;4.40;;;12.10;99.90;;;;;;5116429;28;20052;-76
2024/04/05 04:57:24;;;;;;;13.07;4.22;;;12.10;99.90;;;;;;5100191;28;20051;-77
2024/04/05 04:59:50;;;;;;;12.93;4.13;;;12.10;99.90;;;;;;5102192;28;20040;-76
2024/04/05 05:02:17;;;;;;;10.35;3.28;;;12.10;99.90;;;;;;5105306;28;20048;-76
2024/04/05 05:04:42;;;;;;;10.57;3.42;;;12.10;99.90;;;;;;5102113;28;20044;-75
2024/04/05 05:07:11;;;;;;;7.57;3.00;;;12.10;99.90;;;;;;5103622;28;20055;-76
2024/04/05 05:09:36;;;;;;;13.93;3.63;;;12.10;99.90;;;;;;5105728;28;20048;-76
2024/04/05 05:12:05;;;;;;;11.32;3.10;;;12.10;99.90;;;;;;5104982;28;20131;-76
2024/04/05 05:14:31;;;;;;;9.70;3.03;;;12.10;99.90;;;;;;5100141;28;20051;-75
2024/04/05 05:16:58;;;;;;;6.97;2.92;;;12.10;99.90;;;;;;5086944;28;20044;-75
2024/04/05 05:19:24;;;;;;;6.43;2.85;;;12.10;99.90;;;;;;5104741;28;20051;-75
2024/04/05 05:21:51;;;;;;;9.25;3.20;;;12.10;99.90;;;;;;5105147;28;20044;-76
2024/04/05 05:24:18;;;;;;;10.80;3.35;;;12.10;99.90;;;;;;5104580;28;20040;-76
2024/04/05 05:26:45;;;;;;;9.85;3.22;;;12.10;99.90;;;;;;5104502;28;20048;-75
2024/04/05 05:29:10;;;;;;;11.85;3.83;;;12.20;99.90;;;;;;5103984;28;20056;-75
2024/04/05 05:31:38;;;;;;;8.13;2.95;;;12.20;99.90;;;;;;5104053;28;20079;-75
2024/04/05 05:34:04;;;;;;;12.38;3.15;;;12.20;99.90;;;;;;5104029;28;20056;-75
2024/04/05 05:36:31;;;;;;;17.55;2.97;;;12.20;99.90;;;;;;5102932;28;20047;-76
2024/04/05 05:38:57;;;;;;;12.05;3.58;;;12.20;99.90;;;;;;5102204;28;20055;-75
2024/04/05 05:41:25;;;;;;;9.70;2.85;;;12.30;99.90;;;;;;5102353;28;20044;-76
2024/04/05 05:43:51;;;;;;;11.18;3.08;;;12.30;99.90;;;;;;5104130;28;20067;-75
2024/04/05 05:46:17;;;;;;;12.68;3.00;;;12.50;99.90;;;;;;5100691;28;20044;-76
2024/04/05 05:48:43;;;;;;;11.23;3.15;;;12.70;99.90;;;;;;5098261;28;20059;-76
2024/04/05 05:51:10;;;;;;;8.27;2.75;;;13.20;99.90;;;;;;5097639;28;20043;-75
2024/04/05 05:53:36;;;;;;;12.10;4.75;;;13.90;99.90;;;;;;5097649;28;20054;-76
2024/04/05 05:56:04;;;;;;;8.68;2.85;;;14.80;99.90;;;;;;5096981;28;20054;-76
2024/04/05 05:58:31;;;;;;;10.82;2.67;;;15.60;99.90;;;;;;5097610;28;20048;-76
2024/04/05 06:00:58;;;;;;;8.18;2.95;;;15.90;99.90;;;;;;5097398;28;20451;-76
2024/04/05 06:03:25;;;;;;;9.75;3.42;;;16.30;99.90;;;;;;5100202;28;20044;-76
2024/04/05 06:05:52;;;;;;;10.73;2.80;;;17.10;99.90;;;;;;5099353;28;20071;-75
2024/04/05 06:08:18;;;;;;;12.90;3.20;;;17.80;99.90;;;;;;5098851;28;20078;-76
2024/04/05 06:10:55;;;;;;;9.55;3.03;;;18.60;99.90;;;;;;5098480;28;20071;-76
2024/04/05 06:13:20;;;;;;;5.85;2.72;;;19.40;99.90;;;;;;5099047;28;20048;-76
2024/04/05 06:15:54;;;;;;;17.92;3.42;;;19.80;99.90;;;;;;5098770;28;20074;-77
2024/04/05 06:18:20;;;;;;;7.43;2.72;;;20.40;99.90;;;;;;5099642;28;20048;-76
2024/04/05 06:20:52;;;;;;;11.07;2.80;;;20.50;99.90;;;;;;5098970;28;20043;-77
2024/04/05 06:23:18;;;;;;;15.52;2.65;;;20.50;99.90;;;;;;5099418;28;20048;-77
2024/04/05 06:25:52;;;;;;;8.65;2.85;;;20.10;99.90;;;;;;5099148;28;20047;-76
2024/04/05 06:28:18;;;;;;;7.00;2.78;;;19.80;99.90;;;;;;5098374;28;20135;-77
2024/04/05 06:30:45;;;;;;;9.63;3.08;;;19.50;99.90;;;;;;5098018;28;20189;-76
2024/04/05 06:33:12;;;;;;;8.13;2.88;;;19.00;99.90;;;;;;5096724;28;20516;-76
2024/04/05 06:35:39;;;;;;;8.82;2.78;;;19.20;99.90;;;;;;5097286;28;20051;-77
2024/04/05 06:38:05;;;;;;;7.63;2.47;;;20.00;99.90;;;;;;5097828;28;20059;-76
2024/04/05 06:40:32;;;;;;;9.05;2.60;;;21.00;99.90;;;;;;5099396;28;20048;-77
2024/04/05 06:42:57;;;;;;;10.05;2.88;;;21.60;99.90;;;;;;5110532;28;20044;-76
2024/04/05 06:45:24;;;;;;;8.18;2.50;;;22.30;99.90;;;;;;5116401;28;20044;-76
2024/04/05 06:47:50;;;;;;;11.45;3.20;;;23.10;99.90;;;;;;5116469;28;20039;-77
2024/04/05 06:50:18;;;;;;;14.30;2.83;;;23.60;99.90;;;;;;5115976;28;20075;-77
2024/04/05 06:52:44;;;;;;;11.45;2.38;;;24.00;99.90;;;;;;5116140;28;20036;-77
2024/04/05 06:55:11;;;;;;;6.60;1.60;;;24.70;99.90;;;;;;5114849;28;20051;-77
2024/04/05 06:57:38;;;;;;;7.03;1.98;;;25.40;99.90;;;;;;5115151;28;20086;-77
2024/04/05 07:00:07;;;;;;;5.68;1.67;;;25.40;99.90;;;;;;5102190;28;20048;-77
2024/04/05 07:02:33;;;;;;;7.22;1.70;;;25.10;99.90;;;;;;5098332;28;20052;-77
2024/04/05 07:05:01;;;;;;;9.00;2.00;;;24.60;99.50;;;;;;5097964;28;20503;-77
2024/04/05 07:07:28;;;;;;;7.40;1.90;;;24.10;99.20;;;;;;5097661;28;20415;-76
2024/04/05 07:09:55;;;;;;;5.13;2.38;;;23.70;99.90;;;;;;5102111;28;20429;-77
2024/04/05 07:12:23;;;;;;;16.05;3.10;;;23.40;99.90;;;;;;5111270;28;20055;-77
2024/04/05 07:14:50;;;;;;;15.90;3.17;;;23.30;99.90;;;;;;5117085;28;20028;-76
2024/04/05 07:17:16;;;;;;;13.05;3.53;;;23.10;99.90;;;;;;5117256;28;20039;-76
2024/04/05 07:19:43;;;;;;;7.93;3.20;;;22.90;99.90;;;;;;5117238;28;20036;-76
2024/04/05 07:22:11;;;;;;;12.75;3.95;;;22.50;99.90;;;;;;5116936;28;20060;-76
2024/04/05 07:24:39;;;;;;;11.65;3.03;;;22.30;99.90;;;;;;5117555;28;20059;-76
2024/04/05 07:27:05;;;;;;;8.15;2.97;;;22.20;99.90;;;;;;5117406;28;20039;-76
2024/04/05 07:29:32;;;;;;;6.72;2.88;;;22.00;99.90;;;;;;5117077;28;20044;-77
2024/04/05 07:31:58;;;;;;;11.52;2.45;;;22.20;99.90;;;;;;5116610;28;20052;-76
2024/04/05 07:34:25;;;;;;;5.18;1.73;;;22.40;99.90;;;;;;5106037;28;20047;-77
2024/04/05 07:36:51;;;;;;;4.55;1.48;;;22.70;99.90;;;;;;5097068;28;20054;-76
2024/04/05 07:39:18;;;;;;;6.65;1.30;;;22.80;99.90;;;;;;5097794;28;20461;-76
2024/04/05 07:41:45;;;;;;;6.63;1.50;;;22.40;99.90;;;;;;5097879;28;20063;-76
2024/04/05 07:44:12;;;;;;;6.05;1.55;;;21.90;99.90;;;;;;5096704;28;20448;-77
2024/04/05 07:46:38;;;;;;;7.20;1.60;;;21.70;99.90;;;;;;5096855;28;20059;-76
2024/04/05 07:49:05;;;;;;;4.32;1.33;;;21.70;99.90;;;;;;5096717;28;20051;-76
2024/04/05 07:51:31;;;;;;;8.75;1.85;;;21.80;99.90;;;;;;5096439;28;20412;-76
2024/04/05 07:53:57;;;;;;;5.03;1.63;;;21.60;99.90;;;;;;5097203;28;20136;-77
2024/04/05 07:56:25;;;;;;;3.85;1.20;;;21.60;99.90;;;;;;5097750;28;20052;-77
2024/04/05 07:58:54;;;;;;;4.75;1.30;;;21.80;99.90;;;;;;5097333;28;20055;-77
2024/04/05 08:01:19;;;;;;;5.03;1.48;;;22.30;99.90;;;;;;5097616;28;20084;-77
2024/04/05 08:03:46;;;;;;;4.45;1.45;;;23.40;99.90;;;;;;5097787;28;20072;-76
2024/04/05 08:06:12;;;;;;;2.97;1.42;;;24.70;99.70;;;;;;5096598;28;20059;-77
2024/04/05 08:08:39;;;;;;;5.20;1.80;;;25.70;98.20;;;;;;5097994;28;20047;-78
2024/04/05 08:11:05;;;;;;;7.50;1.60;;;26.00;96.50;;;;;;5098314;28;20075;-77
2024/04/05 08:13:32;;;;;;;6.18;1.77;;;25.70;95.90;;;;;;5099522;28;20048;-78
2024/04/05 08:16:01;;;;;;;3.05;1.05;;;26.10;95.30;;;;;;5097171;28;20047;-78
2024/04/05 08:18:28;;;;;;;4.43;1.67;;;26.70;94.60;;;;;;5096505;28;20048;-78
2024/04/05 08:20:54;;;;;;;5.15;1.65;;;27.40;93.60;;;;;;5095708;28;20048;-77
2024/04/05 08:23:20;;;;;;;4.30;1.85;;;27.80;92.60;;;;;;5095785;28;20135;-77
2024/04/05 08:25:46;;;;;;;6.38;1.90;;;28.50;90.90;;;;;;5099575;28;20048;-77
2024/04/05 08:28:13;;;;;;;6.00;2.13;;;28.50;90.20;;;;;;5099268;28;20044;-76
2024/04/05 08:30:39;;;;;;;5.55;1.80;;;28.70;89.10;;;;;;5100718;28;20048;-77
2024/04/05 08:33:09;;;;;;;6.28;1.42;;;28.70;88.00;;;;;;5099160;28;20079;-77
2024/04/05 08:35:35;;;;;;;5.85;1.48;;;28.90;85.70;;;;;;5098950;28;20594;-77
2024/04/05 08:38:02;;;;;;;7.03;1.90;;;28.80;84.00;;;;;;5098441;28;20071;-78
2024/04/05 08:40:28;;;;;;;5.85;1.80;;;28.80;82.80;;;;;;5098549;28;20051;-77
2024/04/05 08:43:00;;;;;;;6.43;1.75;;;28.70;83.30;;;;;;5098907;28;20048;-77
2024/04/05 08:45:30;;;;;;;6.70;1.50;;;29.30;83.90;;;;;;5098583;28;20051;-77
2024/04/05 08:48:04;;;;;;;6.05;1.63;;;28.70;83.50;;;;;;5098759;28;20130;-77
2024/04/05 08:50:33;;;;;;;6.80;1.33;;;28.50;83.00;;;;;;5099467;28;20048;-77
2024/04/05 08:53:00;;;;;;;5.05;1.73;;;29.10;81.00;;;;;;5099993;28;20572;-77
2024/04/05 08:55:26;;;;;;;4.03;1.38;;;29.50;78.60;;;;;;5099910;28;20050;-78
2024/04/05 08:57:55;;;;;;;4.30;1.65;;;29.90;77.30;;;;;;5101128;28;20499;-77
2024/04/05 09:00:23;;;;;;;10.35;2.00;;;30.20;75.90;;;;;;5101234;28;20491;-77
2024/04/05 09:02:52;;;;;;;8.32;1.95;;;30.30;75.00;;;;;;5101587;28;20126;-77
2024/04/05 09:05:17;;;;;;;4.57;1.50;;;30.30;74.10;;;;;;5102487;28;20056;-77
2024/04/05 09:07:49;;;;;;;3.45;1.50;;;30.40;70.20;;;;;;5100370;28;20503;-78
2024/04/05 09:10:16;;;;;;;3.55;1.05;;;30.80;68.40;;;;;;5100099;28;20048;-77
2024/04/05 09:12:51;;;;;;;3.58;1.20;;;30.70;63.80;;;;;;5100798;28;20051;-77
2024/04/05 09:15:18;;;;;;;2.83;1.10;;;29.90;64.40;;;;;;5101815;28;20044;-77
2024/04/05 09:17:48;;;;;;;3.40;1.25;;;29.50;66.30;;;;;;5101778;28;20052;-76
2024/04/05 09:20:24;;;;;;;7.97;1.00;;;29.70;64.60;;;;;;5100139;28;20420;-76
2024/04/05 09:23:00;;;;;;;3.47;1.08;;;29.30;65.10;;;;;;5100532;28;20040;-77
2024/04/05 09:25:26;;;;;;;5.85;1.35;;;29.30;66.60;;;;;;5100673;28;20040;-76
2024/04/05 09:28:07;;;;;;;4.68;1.23;;;29.90;64.70;;;;;;5098878;28;20044;-76
2024/04/05 09:30:34;;;;;;;2.13;1.15;;;30.60;63.90;;;;;;5097646;28;20048;-76
2024/04/05 09:33:01;;;;;;;4.93;1.10;;;30.60;60.60;;;;;;5097336;28;20039;-77
2024/04/05 09:35:28;;;;;;;4.18;1.20;;;30.40;59.80;;;;;;5097390;28;20046;-76
2024/04/05 09:37:56;;;;;;;9.10;1.45;;;30.20;60.10;;;;;;5098119;28;20048;-77
2024/04/05 09:40:23;;;;;;;5.07;1.95;;;30.50;59.50;;;;;;5097924;28;20052;-77
2024/04/05 09:42:52;;;;;;;4.70;1.35;;;30.20;59.20;;;;;;5098109;28;20040;-76
2024/04/05 09:45:20;;;;;;;3.20;1.17;;;29.90;60.30;;;;;;5097656;28;20489;-77
2024/04/05 09:47:48;;;;;;;3.25;1.17;;;29.90;60.10;;;;;;5099352;28;20050;-77
2024/04/05 09:50:14;;;;;;;2.95;1.27;;;29.90;60.60;;;;;;5098674;28;20055;-77
2024/04/05 09:52:46;;;;;;;4.18;1.25;;;29.70;60.70;;;;;;5098534;28;20048;-77
2024/04/05 09:55:16;;;;;;;5.03;1.47;;;29.70;60.80;;;;;;5099470;28;20050;-76
2024/04/05 09:57:44;;;;;;;2.95;1.25;;;29.70;59.40;;;;;;5099265;28;20500;-77
2024/04/05 10:00:15;;;;;;;3.55;1.10;;;30.20;59.00;;;;;;5098320;28;20397;-77
2024/04/05 10:02:46;;;;;;;5.20;1.55;;;30.60;58.70;;;;;;5097023;28;20131;-77
2024/04/05 10:05:23;;;;;;;3.08;1.10;;;30.90;58.60;;;;;;5098851;28;20048;-76
2024/04/05 10:07:50;;;;;;;3.40;1.15;;;31.30;56.40;;;;;;5098705;28;20050;-76
2024/04/05 10:10:26;;;;;;;3.42;1.17;;;31.10;54.90;;;;;;5098408;28;20044;-76
2024/04/05 10:12:53;;;;;;;3.85;0.95;;;30.90;53.80;;;;;;5097795;28;20040;-76
2024/04/05 10:15:25;;;;;;;5.65;1.05;;;30.60;54.80;;;;;;5098563;28;20051;-76
2024/04/05 10:17:55;;;;;;;2.35;0.80;;;30.60;53.50;;;;;;5100254;28;20048;-76
2024/04/05 10:20:21;;;;;;;3.20;0.90;;;30.50;53.00;;;;;;5101024;28;20052;-77
2024/04/05 10:22:58;;;;;;;6.70;0.93;;;30.30;52.90;;;;;;5101211;28;20108;-76
2024/04/05 10:25:25;;;;;;;3.78;0.88;;;30.50;52.80;;;;;;5102145;28;20110;-77
2024/04/05 10:27:54;;;;;;;1.45;0.90;;;30.30;52.70;;;;;;5114832;28;20052;-77
2024/04/05 10:30:21;;;;;;;5.30;1.10;;;30.00;53.20;;;;;;5119248;28;20058;-77
2024/04/05 10:32:56;;;;;;;4.43;1.10;;;30.10;53.20;;;;;;5118705;28;20044;-77
2024/04/05 10:35:22;;;;;;;3.88;1.20;;;30.70;52.80;;;;;;5118342;28;20040;-77
2024/04/05 10:37:58;;;;;;;2.42;0.90;;;31.20;51.40;;;;;;5105437;28;20481;-77
2024/04/05 10:40:25;;;;;;;8.35;1.40;;;31.30;51.90;;;;;;5110172;28;20106;-77
2024/04/05 10:42:52;;;;;;;2.85;0.70;;;30.50;50.90;;;;;;5095592;28;20059;-77
2024/04/05 10:45:20;;;;;;;3.72;0.80;;;29.30;51.30;;;;;;5094500;28;20090;-76
2024/04/05 10:47:56;;;;;;;5.05;1.13;;;28.30;52.50;;;;;;5094831;28;20083;-77
2024/04/05 10:50:22;;;;;;;3.03;0.90;;;27.50;54.10;;;;;;5094977;28;20088;-76
2024/04/05 10:52:49;;;;;;;2.05;0.93;;;26.90;55.10;;;;;;5094383;28;20463;-77
2024/04/05 10:55:15;;;;;;;4.50;1.02;;;26.50;56.00;;;;;;5094152;28;20079;-77
2024/04/05 10:57:44;;;;;;;2.45;0.90;;;26.40;56.20;;;;;;5093933;28;20427;-76
2024/04/05 11:00:11;;;;;;;2.33;0.93;;;26.00;55.90;;;;;;5094164;28;20044;-76
2024/04/05 11:02:40;;;;;;;2.10;1.00;;;25.70;57.40;;;;;;5094176;28;20044;-77
2024/04/05 11:05:08;;;;;;;6.40;1.10;;;25.70;57.70;;;;;;5094081;28;20052;-76
2024/04/05 11:07:35;;;;;;;4.63;1.00;;;25.50;57.10;;;;;;5095059;28;20473;-76
2024/04/05 11:10:12;;;;;;;7.20;1.30;;;25.40;58.10;;;;;;5098961;28;20055;-77
2024/04/05 11:12:39;;;;;;;3.00;1.02;;;25.40;57.80;;;;;;5095373;28;20059;-77
2024/04/05 11:15:07;;;;;;;1.85;0.90;;;25.60;58.30;;;;;;5096699;28;20054;-77
2024/04/05 11:17:34;;;;;;;2.50;1.00;;;25.80;58.30;;;;;;5095562;28;20048;-76
2024/04/05 11:20:11;;;;;;;4.40;0.75;;;26.00;57.60;;;;;;5101319;28;20211;-76
2024/04/05 11:22:40;;;;;;;3.50;0.70;;;26.10;57.90;;;;;;5098044;28;20071;-76
2024/04/05 11:25:08;;;;;;;3.97;1.10;;;25.90;56.60;;;;;;5097745;28;20048;-77
2024/04/05 11:27:35;;;;;;;2.13;0.88;;;25.70;57.60;;;;;;5097486;28;20048;-77
2024/04/05 11:30:03;;;;;;;1.55;0.93;;;25.60;58.00;;;;;;5101632;28;20131;-76
2024/04/05 11:32:32;;;;;;;3.17;0.95;;;25.60;57.70;;;;;;5096125;28;20173;-76
2024/04/05 11:35:00;;;;;;;3.35;0.98;;;25.60;57.20;;;;;;5095670;28;20493;-76
2024/04/05 11:37:28;;;;;;;2.72;0.73;;;25.70;57.30;;;;;;5094037;28;20048;-76
2024/04/05 11:39:53;;;;;;;2.25;0.80;;;25.70;56.90;;;;;;5094902;28;20177;-76
2024/04/05 11:42:20;;;;;;;4.50;1.00;;;25.50;56.60;;;;;;5094650;28;20085;-76
2024/04/05 11:44:47;;;;;;;3.08;0.80;;;25.40;56.30;;;;;;5094077;28;20099;-77
2024/04/05 11:47:14;;;;;;;1.35;0.80;;;25.00;56.30;;;;;;5095621;28;20040;-77
2024/04/05 11:49:41;;;;;;;5.50;0.88;;;24.70;57.30;;;;;;5095907;28;20512;-77
2024/04/05 11:52:08;;;;;;;4.25;0.90;;;24.70;58.30;;;;;;5094566;28;20048;-77
2024/04/05 11:54:34;;;;;;;1.85;0.77;;;24.70;59.20;;;;;;5094742;28;20052;-76
2024/04/05 11:57:01;;;;;;;1.90;0.93;;;24.60;58.70;;;;;;5093230;28;20139;-76
2024/04/05 11:59:27;;;;;;;4.05;0.85;;;24.50;58.90;;;;;;5094592;28;20052;-77
2024/04/05 12:01:53;;;;;;;5.85;0.90;;;24.50;59.10;;;;;;5094037;28;20055;-77
2024/04/05 12:04:20;;;;;;;4.65;0.95;;;24.50;59.50;;;;;;5092787;28;20500;-76
2024/04/05 12:06:50;;;;;;;5.18;0.80;;;24.50;59.90;;;;;;5092636;28;20044;-76
2024/04/05 12:09:16;;;;;;;2.35;1.00;;;24.50;60.80;;;;;;5092640;28;20543;-78
2024/04/05 12:11:43;;;;;;;3.72;0.90;;;24.50;61.40;;;;;;5092578;28;20587;-76
2024/04/05 12:14:10;;;;;;;1.95;0.80;;;24.60;61.50;;;;;;5095216;28;20048;-77
2024/04/05 12:16:36;;;;;;;5.65;0.75;;;24.70;61.40;;;;;;5097457;28;20230;-77
2024/04/05 12:19:03;;;;;;;3.83;0.70;;;24.70;61.50;;;;;;5099115;28;20043;-76
2024/04/05 12:21:29;;;;;;;3.38;0.85;;;24.70;60.90;;;;;;5099968;28;20074;-76
2024/04/05 12:23:57;;;;;;;2.78;0.90;;;24.70;60.40;;;;;;5101124;28;20051;-78
2024/04/05 12:26:23;;;;;;;1.83;1.08;;;24.80;61.20;;;;;;5100955;28;20503;-77
2024/04/05 12:28:50;;;;;;;4.70;1.00;;;25.00;61.80;;;;;;5101847;28;20048;-76
2024/04/05 12:31:16;;;;;;;1.83;0.80;;;24.90;60.40;;;;;;5097275;28;20054;-77
2024/04/05 12:33:43;;;;;;;4.05;0.93;;;25.10;60.80;;;;;;5095828;28;20043;-77
2024/04/05 12:36:10;;;;;;;1.52;0.80;;;25.40;59.90;;;;;;5097252;28;20048;-77
2024/04/05 12:38:39;;;;;;;2.35;1.00;;;25.40;59.90;;;;;;5096116;28;20068;-76
2024/04/05 12:41:07;;;;;;;1.65;0.90;;;25.50;58.50;;;;;;5096020;28;20048;-77
2024/04/05 12:43:34;;;;;;;1.75;0.70;;;25.40;59.00;;;;;;5094926;28;20492;-77
2024/04/05 12:46:01;;;;;;;4.68;0.70;;;25.40;59.30;;;;;;5094888;28;20040;-76